Bishop's Corner, Connecticut
Current Conditions -  °F | °C
As of 4:36 AM on Sunday 26 Oct 2014 (Local Time) from KHFD Reporting Station
Moderate Rain Moderate Rain  
Wind Chill: 50°   Ceiling: 6000
Heat Index: 50°   Visibility: 10mi
Dew Point: 41°   Wind: 13mph
Humidity: 71%   Direction: 300°WNW
Pressure: 29.58"   Gusts: 31mph
Location:  41.7863°N, 72.7619°W
Report Text: KHFD 260836Z AUTO 30011G27KT 250V320 10SM RA FEW042 OVC060 10/05 A2958 RMK AO2 PK WND 30038/0824 WSHFT 0816 RAB27 P0000 T01000050
Loading
Personal Weather Stations






























Interactive Weather Map
Tropical Storm Tracking
New forecast layout! Learn more

10-Day Weather Forecast

Advertisements
Track Severe Weather on mobile